Time;durP1;ratioP1;P1;durP2;ratioP2;P2;SDS_P1;SDS_P2;PMS_P1;PMS_P2;Temp;Humidity;BMP_temperature;BMP_pressure;BME280_temperature;BME280_humidity;BME280_pressure;Samples;Min_cycle;Max_cycle;Signal;HPM_P1;HPM_P2
2022/04/18 00:02:55;;;;;;;7.87;5.83;;;;;;;6.07;76.53;100506.39;1618068;87;21228;-59
2022/04/18 00:06:03;;;;;;;7.00;5.60;;;;;;;6.06;76.77;100499.22;1618545;88;21256;-58
2022/04/18 00:09:10;;;;;;;7.17;5.40;;;;;;;5.99;76.87;100497.57;1618119;87;21248;-59
2022/04/18 00:12:17;;;;;;;6.47;5.55;;;;;;;5.93;77.12;100495.44;1618281;88;21221;-58
2022/04/18 00:15:24;;;;;;;6.33;5.15;;;;;;;5.94;77.41;100495.81;1618345;88;21244;-59
2022/04/18 00:18:30;;;;;;;6.35;5.37;;;;;;;5.98;77.49;100488.20;1618391;87;21209;-59
2022/04/18 00:21:36;;;;;;;5.58;4.92;;;;;;;5.92;77.46;100482.00;1619068;87;21287;-60
2022/04/18 00:24:42;;;;;;;6.05;5.22;;;;;;;5.89;77.58;100477.72;1622151;87;21234;-59
2022/04/18 00:27:49;;;;;;;6.33;5.05;;;;;;;5.83;77.63;100474.23;1622144;87;21260;-58
2022/04/18 00:30:55;;;;;;;6.33;5.05;;;;;;;5.79;77.72;100481.39;1645309;87;21256;-59
2022/04/18 00:34:02;;;;;;;6.53;5.20;;;;;;;5.71;77.82;100475.81;1622330;87;21248;-59
2022/04/18 00:37:07;;;;;;;6.05;4.70;;;;;;;5.67;78.07;100476.63;1622279;88;21249;-59
2022/04/18 00:40:15;;;;;;;6.37;4.92;;;;;;;5.63;78.28;100470.23;1622253;88;21244;-59
2022/04/18 00:43:23;;;;;;;5.67;4.95;;;;;;;5.64;78.41;100469.25;1645640;86;21244;-59
2022/04/18 00:46:29;;;;;;;6.58;5.10;;;;;;;5.58;78.51;100470.66;1646292;86;21257;-59
2022/04/18 00:49:34;;;;;;;6.45;5.10;;;;;;;5.53;78.65;100466.67;1645372;86;21312;-57
2022/04/18 00:52:40;;;;;;;6.50;5.17;;;;;;;5.48;78.87;100457.61;1647602;86;21296;-58
2022/04/18 00:55:48;;;;;;;6.97;4.80;;;;;;;5.48;79.11;100458.96;1645490;87;21418;-58
2022/04/18 00:58:56;;;;;;;6.33;5.00;;;;;;;5.48;79.08;100467.59;1621773;87;21280;-58
2022/04/18 01:02:04;;;;;;;6.28;5.10;;;;;;;5.43;79.10;100464.44;1622365;88;21228;-59
2022/04/18 01:05:12;;;;;;;6.78;4.62;;;;;;;5.39;79.33;100450.81;1622041;88;21273;-57
2022/04/18 01:08:17;;;;;;;6.78;5.22;;;;;;;5.37;79.43;100450.08;1601799;87;21757;-59
2022/04/18 01:11:22;;;;;;;6.58;4.65;;;;;;;5.34;79.60;100453.95;1645410;87;21384;-59
2022/04/18 01:14:33;;;;;;;5.87;4.55;;;;;;;5.33;79.76;100456.78;1616318;87;21256;-58
2022/04/18 01:17:41;;;;;;;6.50;5.15;;;;;;;5.35;79.92;100457.02;1645477;87;21221;-58
2022/04/18 01:20:58;;;;;;;5.75;4.72;;;;;;;5.33;79.97;100445.43;1614199;89;21221;-57
2022/04/18 01:31:14;;;;;;;6.95;5.10;;;;;;;5.23;80.36;100443.72;1617385;89;21225;-59
2022/04/18 01:34:21;;;;;;;6.45;4.78;;;;;;;5.19;80.61;100441.77;1617466;87;21257;-57
2022/04/18 01:37:29;;;;;;;5.58;4.55;;;;;;;5.16;80.73;100433.05;1617485;89;21300;-58
2022/04/18 01:40:39;;;;;;;5.90;5.20;;;;;;;5.15;80.94;100436.77;1617470;89;21265;-58
2022/04/18 01:43:44;;;;;;;5.47;4.67;;;;;;;5.16;81.13;100435.27;1617595;87;21340;-58
2022/04/18 01:46:50;;;;;;;6.12;5.53;;;;;;;5.18;81.27;100422.44;1617657;89;21233;-59
2022/04/18 01:49:56;;;;;;;5.90;5.20;;;;;;;5.18;81.20;100423.79;1614105;87;21233;-58
2022/04/18 01:53:03;;;;;;;5.30;4.67;;;;;;;5.14;81.28;100422.86;1617097;87;21244;-58
2022/04/18 01:56:13;;;;;;;6.20;5.03;;;;;;;5.08;81.43;100398.48;1617590;89;21213;-58
2022/04/18 01:59:20;;;;;;;6.75;5.30;;;;;;;5.11;81.77;100400.05;1617473;87;21262;-59
2022/04/18 02:02:26;;;;;;;6.78;5.90;;;;;;;5.12;81.87;100400.43;1617482;89;21233;-59
2022/04/18 02:05:32;;;;;;;5.95;4.92;;;;;;;5.12;81.97;100388.22;1617506;89;21281;-59
2022/04/18 02:08:38;;;;;;;7.25;5.17;;;;;;;5.13;81.89;100402.13;1617604;87;21252;-57
2022/04/18 02:11:46;;;;;;;9.58;5.67;;;;;;;5.13;81.95;100412.50;1617696;88;21565;-58
2022/04/18 02:14:56;;;;;;;6.37;5.12;;;;;;;5.12;81.94;100420.77;1617738;87;21248;-59
2022/04/18 02:18:10;;;;;;;7.17;5.45;;;;;;;5.12;82.04;100420.25;1615319;87;21236;-58
2022/04/18 02:21:17;;;;;;;7.60;5.50;;;;;;;5.10;81.95;100426.34;1617577;89;21241;-59
2022/04/18 02:24:23;;;;;;;6.28;5.40;;;;;;;5.07;82.03;100430.70;1616760;87;21252;-58
2022/04/18 02:27:30;;;;;;;6.28;5.17;;;;;;;5.11;82.21;100425.83;1617412;89;21252;-58
2022/04/18 02:30:36;;;;;;;6.10;5.40;;;;;;;5.15;82.19;100413.70;1617162;89;21248;-58
2022/04/18 02:33:42;;;;;;;6.53;4.97;;;;;;;5.15;82.02;100400.14;1616983;87;21280;-58
2022/04/18 02:36:48;;;;;;;5.95;4.78;;;;;;;5.12;81.91;100392.29;1617540;89;21351;-57
2022/04/18 02:39:59;;;;;;;7.00;5.12;;;;;;;5.09;81.90;100381.72;1617595;87;21280;-58
2022/04/18 02:43:05;;;;;;;5.75;4.75;;;;;;;5.10;82.01;100384.78;1617652;87;21277;-58
2022/04/18 02:46:15;;;;;;;6.45;5.47;;;;;;;5.10;82.03;100386.14;1617242;89;21228;-59
2022/04/18 02:49:22;;;;;;;5.90;4.72;;;;;;;5.10;81.95;100382.07;1613709;87;21229;-58
2022/04/18 02:52:29;;;;;;;7.08;5.28;;;;;;;5.11;81.99;100384.64;1617498;89;21216;-58
2022/04/18 02:55:36;;;;;;;5.92;4.85;;;;;;;5.12;81.94;100374.66;1604822;89;21887;-60
2022/04/18 02:58:43;;;;;;;6.40;5.17;;;;;;;5.14;82.05;100372.66;1617536;87;21233;-59
2022/04/18 03:01:49;;;;;;;6.10;4.97;;;;;;;5.13;81.95;100375.00;1617353;89;21296;-57
2022/04/18 03:04:57;;;;;;;7.05;5.42;;;;;;;5.12;81.96;100393.64;1617678;87;21288;-58
2022/04/18 03:08:05;;;;;;;6.15;5.40;;;;;;;5.06;81.80;100381.48;1617374;87;21328;-58
2022/04/18 03:11:12;;;;;;;6.45;5.50;;;;;;;5.02;81.85;100376.48;1617704;89;21260;-59
2022/04/18 03:14:19;;;;;;;6.20;4.67;;;;;;;4.99;81.91;100375.42;1616839;87;21233;-59
2022/04/18 03:17:27;;;;;;;6.90;5.47;;;;;;;5.02;82.16;100375.13;1617404;89;21281;-59
2022/04/18 03:20:34;;;;;;;6.03;5.12;;;;;;;5.06;82.20;100369.28;1617570;89;21237;-58
2022/04/18 03:23:42;;;;;;;6.37;5.17;;;;;;;5.09;82.16;100360.02;1617803;87;21248;-58
2022/04/18 03:26:53;;;;;;;5.78;4.80;;;;;;;5.09;82.04;100356.78;1624520;87;21220;-58
2022/04/18 03:30:02;;;;;;;6.00;4.95;;;;;;;5.11;81.94;100362.94;1629570;86;21255;-58
2022/04/18 03:33:10;;;;;;;6.30;5.25;;;;;;;5.09;81.82;100354.07;1622519;86;21228;-58
2022/04/18 03:39:51;;;;;;;7.62;5.60;;;;;;;5.06;81.74;100354.36;1582139;88;21794;-57
2022/04/18 03:42:58;;;;;;;6.37;5.35;;;;;;;5.06;81.72;100350.81;1611181;87;21235;-58
2022/04/18 03:46:03;;;;;;;7.67;5.83;;;;;;;5.06;81.85;100350.81;1631211;88;21772;-58
2022/04/18 03:49:11;;;;;;;7.22;5.67;;;;;;;5.07;81.80;100344.38;1628394;87;21296;-59
2022/04/18 03:52:18;;;;;;;5.80;4.72;;;;;;;5.06;81.68;100354.88;1632819;87;21271;-59
2022/04/18 03:55:26;;;;;;;6.50;5.45;;;;;;;5.07;81.81;100351.16;1628574;87;21343;-58
2022/04/18 03:58:34;;;;;;;6.03;4.37;;;;;;;5.15;81.87;100347.23;1627883;87;21283;-59
2022/04/18 04:01:41;;;;;;;5.45;4.60;;;;;;;5.25;81.52;100350.30;1631961;87;21244;-59
2022/04/18 04:04:47;;;;;;;5.30;4.67;;;;;;;5.25;81.21;100345.39;1618064;87;21264;-59
2022/04/18 04:07:53;;;;;;;5.33;4.42;;;;;;;5.28;80.57;100336.96;1602823;88;21228;-60
2022/04/18 04:11:00;;;;;;;5.58;4.45;;;;;;;5.32;80.53;100335.66;1602974;89;21464;-59
2022/04/18 04:14:07;;;;;;;5.17;4.22;;;;;;;5.41;80.05;100338.86;1603515;88;21757;-59
2022/04/18 04:17:13;;;;;;;8.90;6.03;;;;;;;5.35;79.20;100340.30;1603975;89;21291;-60
2022/04/18 04:20:23;;;;;;;5.47;4.60;;;;;;;5.33;79.10;100331.93;1598896;90;21292;-59
2022/04/18 04:23:31;;;;;;;4.67;3.95;;;;;;;5.37;78.79;100334.73;1599968;88;21224;-58
2022/04/18 04:26:44;;;;;;;;;;;;;;;5.33;78.50;100323.30;1592486;87;21251;-59
2022/04/18 04:29:52;;;;;;;5.03;4.22;;;;;;;5.32;78.28;100323.45;1599168;88;20201;-59
2022/04/18 04:33:00;;;;;;;5.65;4.50;;;;;;;5.29;78.29;100321.02;1633184;86;21224;-58
2022/04/18 04:36:07;;;;;;;5.20;3.80;;;;;;;5.33;78.63;100320.59;1634986;88;21224;-58
2022/04/18 04:39:13;;;;;;;5.10;3.85;;;;;;;5.40;78.42;100318.16;1635154;86;21239;-58
2022/04/18 04:42:19;;;;;;;6.22;3.58;;;;;;;5.44;78.26;100323.14;1602923;89;21291;-58
2022/04/18 04:45:26;;;;;;;5.50;3.98;;;;;;;5.49;78.11;100321.34;1604407;87;21287;-57
2022/04/18 04:48:39;;;;;;;4.97;3.70;;;;;;;5.51;77.75;100316.15;1618092;86;21323;-58
2022/04/18 04:51:45;;;;;;;5.70;4.55;;;;;;;5.49;77.57;100329.49;1610124;87;21252;-59
2022/04/18 04:54:50;;;;;;;5.53;4.33;;;;;;;5.48;77.47;100316.93;1628955;87;21234;-58
2022/04/18 04:57:59;;;;;;;5.50;3.90;;;;;;;5.53;77.58;100317.36;1619235;88;21245;-59
2022/04/18 05:01:10;;;;;;;4.53;3.60;;;;;;;5.67;77.75;100311.47;1639829;85;21277;-59
2022/04/18 05:04:18;;;;;;;9.28;6.55;;;;;;;5.82;77.32;100304.58;1641104;86;21225;-59
2022/04/18 05:07:25;;;;;;;5.67;3.62;;;;;;;5.87;77.07;100300.92;1623047;87;21277;-57
2022/04/18 05:10:38;;;;;;;4.92;3.83;;;;;;;5.98;76.94;100303.45;1628043;87;21240;-58
2022/04/18 05:13:47;;;;;;;4.55;3.35;;;;;;;6.04;76.63;100304.25;1654697;86;21249;-59
2022/04/18 05:17:03;;;;;;;4.67;3.70;;;;;;;5.98;75.88;100300.73;1587766;89;21288;-58
2022/04/18 05:20:13;;;;;;;4.60;3.70;;;;;;;5.89;75.64;100293.49;1623666;87;21217;-58
2022/04/18 05:23:24;;;;;;;6.50;3.65;;;;;;;5.79;75.65;100292.62;1601808;87;21286;-61
2022/04/18 05:26:31;;;;;;;3.95;3.20;;;;;;;5.78;75.96;100289.56;1621664;87;21320;-60
2022/04/18 05:29:39;;;;;;;4.67;3.20;;;;;;;5.78;75.98;100292.28;1585659;90;21274;-60
2022/04/18 05:32:47;;;;;;;5.25;3.80;;;;;;;5.74;76.14;100299.86;1617620;88;21268;-60
2022/04/18 05:36:05;;;;;;;5.17;3.85;;;;;;;5.77;76.44;100302.80;1598600;87;21691;-59
2022/04/18 05:39:18;;;;;;;4.40;3.10;;;;;;;5.80;76.56;100303.86;1642386;87;21522;-59
2022/04/18 05:42:32;;;;;;;5.72;4.30;;;;;;;5.89;76.76;100287.57;1625153;87;21663;-58
2022/04/18 05:45:43;;;;;;;4.78;3.42;;;;;;;5.96;76.52;100294.09;1625406;85;21738;-58
2022/04/18 05:48:55;;;;;;;4.15;3.42;;;;;;;5.99;76.45;100288.36;1626076;87;21777;-55
2022/04/18 05:52:01;;;;;;;4.65;3.65;;;;;;;5.97;76.31;100292.25;1617753;88;21288;-53
2022/04/18 05:55:09;;;;;;;4.87;3.60;;;;;;;5.96;76.62;100293.27;1633924;85;21253;-55
2022/04/18 05:58:19;;;;;;;6.58;3.52;;;;;;;6.02;76.57;100281.80;1638743;87;21252;-54
2022/04/18 06:01:37;;;;;;;4.35;3.55;;;;;;;6.07;76.76;100276.77;1629006;87;21241;-57
2022/04/18 06:05:02;;;;;;;4.75;3.45;;;;;;;6.13;76.70;100282.96;1609303;88;22170;-55
2022/04/18 06:08:20;;;;;;;5.25;3.77;;;;;;;6.12;76.45;100278.52;1618854;88;21272;-55
2022/04/18 06:11:28;;;;;;;5.95;4.53;;;;;;;6.13;76.59;100278.88;1627347;83;21268;-55
2022/04/18 06:14:47;;;;;;;5.28;4.25;;;;;;;6.18;76.63;100284.73;1625538;88;21251;-54
2022/04/18 06:17:53;;;;;;;4.60;3.42;;;;;;;6.29;76.88;100288.61;1626088;87;21228;-54
2022/04/18 06:21:00;;;;;;;5.12;3.80;;;;;;;6.46;76.94;100275.55;1638410;87;21231;-55
2022/04/18 06:24:07;;;;;;;5.67;4.00;;;;;;;6.56;76.72;100287.23;1652077;87;21540;-55
2022/04/18 06:27:27;;;;;;;4.92;3.65;;;;;;;6.56;76.44;100281.80;1652873;87;21188;-55
2022/04/18 06:30:33;;;;;;;5.70;4.55;;;;;;;6.52;76.39;100281.73;1651388;87;21268;-54
2022/04/18 06:33:46;;;;;;;5.25;3.95;;;;;;;6.48;76.59;100280.34;1648822;87;21252;-55
2022/04/18 06:36:55;;;;;;;5.15;4.15;;;;;;;6.55;76.68;100273.27;1652762;87;21470;-55
2022/04/18 06:40:26;;;;;;;5.08;3.50;;;;;;;6.63;76.79;100278.80;1649756;87;21339;-55
2022/04/18 06:43:40;;;;;;;5.20;3.87;;;;;;;6.67;76.41;100280.72;1651578;87;21296;-55
2022/04/18 06:46:55;;;;;;;4.47;3.55;;;;;;;6.56;76.68;100277.72;1642799;87;21259;-56
2022/04/18 06:50:37;;;;;;;5.42;3.80;;;;;;;6.65;77.16;100271.84;1631009;86;21193;-55
2022/04/18 06:53:45;;;;;;;6.20;4.12;;;;;;;6.84;77.08;100279.38;1651143;87;21256;-56
2022/04/18 06:57:03;;;;;;;5.03;3.80;;;;;;;6.86;76.59;100281.44;1653077;86;21205;-55
2022/04/18 07:00:15;;;;;;;6.47;4.00;;;;;;;7.01;76.64;100277.65;1649995;87;21272;-59
2022/04/18 07:03:22;;;;;;;4.92;3.77;;;;;;;7.09;75.88;100265.48;1648073;86;21275;-59
2022/04/18 07:06:37;;;;;;;4.95;4.08;;;;;;;7.06;75.47;100259.86;1651944;87;21224;-58
2022/04/18 07:09:44;;;;;;;4.70;3.90;;;;;;;7.03;75.19;100253.37;1652259;87;21430;-60
2022/04/18 07:12:52;;;;;;;5.65;3.67;;;;;;;6.94;75.30;100258.40;1646325;87;21770;-60
2022/04/18 07:16:01;;;;;;;5.58;3.55;;;;;;;6.83;75.08;100255.91;1652400;87;21225;-58
2022/04/18 07:19:08;;;;;;;5.85;3.92;;;;;;;6.79;75.17;100250.91;1627144;87;21665;-58
2022/04/18 07:22:14;;;;;;;5.10;3.92;;;;;;;6.78;75.24;100251.92;1620752;88;21262;-59
2022/04/18 07:25:23;;;;;;;4.62;3.77;;;;;;;6.80;75.28;100243.12;1641290;87;21289;-57
2022/04/18 07:28:32;;;;;;;5.40;3.50;;;;;;;6.87;75.50;100249.63;1590294;90;21264;-57
2022/04/18 07:31:49;;;;;;;5.55;4.35;;;;;;;6.97;75.62;100250.41;1626378;88;21738;-56
2022/04/18 07:35:05;;;;;;;4.67;3.62;;;;;;;6.96;74.92;100241.38;1620620;88;21292;-59
2022/04/18 07:41:53;;;;;;;4.58;3.58;;;;;;;6.93;75.27;100230.81;1637158;87;21753;-58
2022/04/18 07:45:00;;;;;;;5.17;3.47;;;;;;;6.98;74.86;100235.29;1628593;86;21744;-58
2022/04/18 07:48:09;;;;;;;4.60;3.45;;;;;;;7.00;74.71;100221.03;1640496;87;21241;-58
2022/04/18 07:54:46;;;;;;;4.17;3.70;;;;;;;7.17;74.57;100216.55;1643035;87;21723;-57
2022/04/18 07:57:55;;;;;;;4.70;3.37;;;;;;;7.17;73.86;100202.45;1643434;86;21228;-60
2022/04/18 08:01:02;;;;;;;4.67;3.17;;;;;;;7.09;73.75;100205.11;1643295;87;21272;-59
2022/04/18 08:04:09;;;;;;;4.28;3.20;;;;;;;7.21;74.56;100208.44;1639752;87;21766;-57
2022/04/18 08:07:19;;;;;;;6.20;3.47;;;;;;;7.39;74.45;100206.01;1641470;87;21428;-59
2022/04/18 08:10:28;;;;;;;4.58;3.15;;;;;;;7.43;73.34;100200.61;1639727;87;21225;-58
2022/04/18 08:13:36;;;;;;;4.28;3.20;;;;;;;7.51;73.46;100192.49;1634957;84;21224;-59
2022/04/18 08:16:57;;;;;;;4.43;3.50;;;;;;;7.60;73.44;100187.42;1638309;87;21225;-58
2022/04/18 08:20:06;;;;;;;6.37;3.65;;;;;;;7.66;73.04;100189.16;1646113;86;21232;-58
2022/04/18 08:23:13;;;;;;;5.37;3.83;;;;;;;7.71;72.71;100190.90;1648530;87;21312;-58
2022/04/18 08:26:27;;;;;;;4.75;3.27;;;;;;;7.74;72.61;100180.50;1611477;87;21244;-60
2022/04/18 08:29:37;;;;;;;4.10;3.10;;;;;;;7.69;72.49;100184.75;1648368;87;21253;-59
2022/04/18 08:32:47;;;;;;;8.15;3.33;;;;;;;7.63;72.12;100181.31;1648605;86;21232;-59
2022/04/18 08:35:54;;;;;;;4.55;3.35;;;;;;;7.66;72.30;100175.02;1649347;87;21802;-59
2022/04/18 08:39:00;;;;;;;3.90;3.05;;;;;;;7.78;72.96;100181.04;1633653;86;21327;-59
2022/04/18 08:42:12;;;;;;;4.15;2.90;;;;;;;7.92;72.45;100172.24;1648276;87;21825;-59
2022/04/18 08:45:23;;;;;;;4.42;3.10;;;;;;;7.92;71.24;100170.88;1629651;87;21845;-58
2022/04/18 08:55:20;;;;;;;3.45;2.60;;;;;;;7.97;70.66;100160.34;1650900;87;21252;-59
2022/04/18 08:58:37;;;;;;;4.97;3.58;;;;;;;8.01;70.55;100156.29;1651142;86;21907;-59
2022/04/18 09:01:55;;;;;;;5.20;3.67;;;;;;;8.06;70.76;100163.44;1640828;87;21236;-59
2022/04/18 09:05:11;;;;;;;3.90;2.90;;;;;;;8.15;71.13;100152.92;1628580;85;21824;-57
2022/04/18 09:08:19;;;;;;;4.10;3.12;;;;;;;8.06;69.81;100150.66;1625332;87;21323;-60
2022/04/18 09:11:41;;;;;;;4.50;2.98;;;;;;;7.94;70.07;100154.72;1650251;87;21212;-60
2022/04/18 09:14:50;;;;;;;3.42;2.40;;;;;;;7.91;70.28;100153.70;1650497;84;21220;-60
2022/04/18 09:17:57;;;;;;;3.45;2.60;;;;;;;7.90;70.05;100145.66;1650434;87;21325;-57
2022/04/18 09:21:11;;;;;;;4.08;2.80;;;;;;;7.83;69.31;100149.57;1654872;85;21279;-59
2022/04/18 09:24:33;;;;;;;2.95;2.30;;;;;;;7.74;68.78;100141.53;1610349;88;21244;-59
2022/04/18 09:27:41;;;;;;;4.33;3.22;;;;;;;7.72;69.33;100138.11;1623188;88;21773;-59
2022/04/18 09:30:49;;;;;;;4.22;2.50;;;;;;;7.76;69.39;100140.83;1622197;88;21184;-59
2022/04/18 09:34:03;;;;;;;3.92;2.95;;;;;;;7.78;69.04;100135.58;1622051;88;21216;-58
2022/04/18 09:37:23;;;;;;;3.50;2.60;;;;;;;7.76;69.19;100142.20;1622421;88;22051;-59
2022/04/18 09:40:32;;;;;;;3.60;2.72;;;;;;;7.76;69.23;100135.38;1622388;88;21196;-58
2022/04/18 09:43:56;;;;;;;3.87;2.45;;;;;;;7.72;69.59;100129.93;1623647;88;21300;-59
2022/04/18 09:47:05;;;;;;;2.67;2.25;;;;;;;7.80;70.22;100136.25;1624084;88;21296;-59
2022/04/18 09:53:57;;;;;;;2.20;1.80;;;;;;;7.88;68.99;100128.64;1614310;88;21767;-59
2022/04/18 09:57:04;;;;;;;3.70;2.58;;;;;;;7.85;68.73;100123.52;1610945;88;21899;-58
2022/04/18 10:00:05;;;;;;;3.40;2.60;;;;;;;7.86;68.71;100119.27;1605533;88;21229;-59
2022/04/18 10:02:58;;;;;;;3.90;2.40;;;;;;;7.88;68.49;100116.38;1623156;88;21383;-58
2022/04/18 10:05:47;;;;;;;2.95;2.40;;;;;;;7.91;68.65;100114.18;1623121;88;21272;-59
2022/04/18 10:08:42;;;;;;;3.40;2.50;;;;;;;8.01;68.67;100124.94;1623529;88;21781;-58
2022/04/18 10:11:51;;;;;;;2.73;2.27;;;;;;;8.03;68.14;100105.16;1623734;87;21311;-58
2022/04/18 10:14:58;;;;;;;3.25;2.70;;;;;;;8.02;68.03;100095.29;1636355;85;21673;-58
2022/04/18 10:18:05;;;;;;;4.40;2.92;;;;;;;7.96;67.95;100112.31;1619082;88;21727;-59
2022/04/18 10:21:19;;;;;;;4.05;3.05;;;;;;;7.93;68.11;100114.02;1625386;88;21277;-58
2022/04/18 10:25:06;;;;;;;4.47;3.25;;;;;;;7.93;68.62;100119.46;1625212;88;21257;-58
2022/04/18 10:28:25;;;;;;;4.83;3.20;;;;;;;7.97;68.94;100114.87;1627868;87;21325;-59
2022/04/18 10:31:45;;;;;;;6.12;3.40;;;;;;;8.02;69.82;100110.28;1653089;87;21226;-58
2022/04/18 10:34:53;;;;;;;4.90;3.87;;;;;;;8.15;70.25;100103.84;1647346;87;21261;-57
2022/04/18 10:38:04;;;;;;;4.50;3.22;;;;;;;8.29;70.73;100118.22;1615578;86;21763;-58
2022/04/18 10:41:18;;;;;;;4.25;3.27;;;;;;;8.26;69.74;100119.92;1650945;87;21766;-58
2022/04/18 10:44:41;;;;;;;3.70;2.90;;;;;;;8.15;69.64;100117.48;1630851;87;21226;-58
2022/04/18 10:48:13;;;;;;;4.83;3.20;;;;;;;8.06;70.12;100131.58;1630239;87;21803;-56
2022/04/18 10:51:36;;;;;;;;;;;;;;;8.01;70.43;100125.77;1654709;87;21229;-56
2022/04/18 10:54:42;;;;;;;5.20;3.92;;;;;;;7.96;70.91;100123.22;1650881;87;20209;-58
2022/04/18 10:57:48;;;;;;;4.67;3.67;;;;;;;7.93;71.43;100125.75;1645270;87;21521;-56
2022/04/18 11:01:02;;;;;;;5.00;3.72;;;;;;;7.90;71.07;100117.91;1649017;87;22080;-56
2022/04/18 11:04:23;;;;;;;4.97;3.02;;;;;;;7.81;71.50;100118.04;1629476;86;21345;-57
2022/04/18 11:07:29;;;;;;;3.95;3.10;;;;;;;7.71;72.10;100114.62;1653119;87;21794;-55
2022/04/18 11:10:36;;;;;;;3.85;3.15;;;;;;;7.60;72.39;100120.69;1634916;86;21628;-56
2022/04/18 11:13:42;;;;;;;4.80;3.00;;;;;;;7.61;72.60;100115.58;1652901;87;21315;-57
2022/04/18 11:16:55;;;;;;;4.72;3.30;;;;;;;7.57;72.94;100123.74;1647475;84;21250;-56
2022/04/18 11:20:03;;;;;;;5.97;3.50;;;;;;;7.53;73.22;100115.53;1658503;86;21832;-55
2022/04/18 11:23:32;;;;;;;4.67;3.90;;;;;;;7.45;73.46;100126.39;1658396;86;21299;-56
2022/04/18 11:26:38;;;;;;;5.65;4.10;;;;;;;7.40;74.17;100134.19;1658065;86;21200;-57
2022/04/18 11:29:50;;;;;;;6.08;3.83;;;;;;;7.40;74.33;100116.48;1652479;87;21299;-55
2022/04/18 11:32:56;;;;;;;6.28;4.50;;;;;;;7.37;74.38;100120.89;1653920;86;21260;-56
2022/04/18 11:36:16;;;;;;;5.97;4.42;;;;;;;7.32;74.54;100124.64;1653050;87;21261;-56
2022/04/18 11:39:56;;;;;;;6.08;4.70;;;;;;;7.27;74.60;100122.90;1607426;88;21771;-56
2022/04/18 11:43:11;;;;;;;5.90;4.33;;;;;;;7.19;75.19;100117.41;1654903;87;21288;-56
2022/04/18 11:46:37;;;;;;;5.33;4.00;;;;;;;7.11;75.70;100115.13;1606077;88;22185;-57
2022/04/18 11:49:46;;;;;;;5.95;4.50;;;;;;;7.10;76.19;100112.91;1653981;87;21288;-56
2022/04/18 11:52:52;;;;;;;5.58;3.92;;;;;;;7.12;76.47;100114.97;1653804;87;21253;-56
2022/04/18 11:55:59;;;;;;;5.37;3.98;;;;;;;7.11;76.50;100106.47;1653651;87;21248;-56
2022/04/18 11:59:05;;;;;;;6.90;4.58;;;;;;;7.09;76.50;100107.12;1651403;87;21213;-56
2022/04/18 12:09:39;;;;;;;5.53;4.20;;;;;;;7.20;77.42;100091.88;1627307;88;22128;-53
2022/04/18 12:12:48;;;;;;;5.92;4.62;;;;;;;7.29;77.66;100085.45;1614525;88;21374;-53
2022/04/18 12:15:55;;;;;;;6.15;4.20;;;;;;;7.36;77.93;100079.72;1636276;85;21200;-52
2022/04/18 12:19:04;;;;;;;5.45;4.35;;;;;;;7.40;77.81;100082.45;1626593;85;21647;-54
2022/04/18 12:22:15;;;;;;;7.05;4.60;;;;;;;7.42;77.98;100081.78;1625844;88;21734;-57
2022/04/18 12:25:38;;;;;;;5.50;4.33;;;;;;;7.46;78.36;100083.68;1624873;88;21304;-58
2022/04/18 12:28:45;;;;;;;6.80;4.40;;;;;;;7.55;78.41;100079.97;1626316;88;21798;-53
2022/04/18 12:31:52;;;;;;;5.72;4.53;;;;;;;7.53;78.36;100078.77;1646129;87;21315;-54
2022/04/18 12:35:00;;;;;;;7.10;4.35;;;;;;;7.52;78.16;100076.21;1632698;87;21284;-54
2022/04/18 12:38:17;;;;;;;7.03;4.80;;;;;;;7.41;78.19;100083.31;1640218;87;21231;-54
2022/04/18 12:41:39;;;;;;;6.83;4.75;;;;;;;7.34;78.09;100077.66;1660475;85;21212;-53
2022/04/18 12:44:45;;;;;;;7.10;4.92;;;;;;;7.25;78.40;100077.78;1652206;85;21548;-56
2022/04/18 12:47:51;;;;;;;5.97;4.80;;;;;;;7.25;78.92;100073.70;1633166;88;21234;-60
2022/04/18 12:51:01;;;;;;;5.55;4.22;;;;;;;7.29;79.07;100071.84;1607838;89;21227;-59
2022/04/18 12:54:29;;;;;;;7.05;4.97;;;;;;;7.27;78.92;100059.42;1671645;86;21437;-55
2022/04/18 12:57:39;;;;;;;4.67;3.80;;;;;;;7.24;79.02;100062.47;1670096;85;21327;-55
2022/04/18 13:00:46;;;;;;;5.08;3.90;;;;;;;7.27;79.14;100054.84;1625604;87;21268;-56
2022/04/18 13:03:54;;;;;;;5.78;3.95;;;;;;;7.31;78.95;100050.77;1635300;87;21244;-56
2022/04/18 13:07:04;;;;;;;5.20;3.87;;;;;;;7.31;78.80;100048.53;1652542;87;21212;-56
2022/04/18 13:10:15;;;;;;;5.05;3.83;;;;;;;7.33;78.79;100050.10;1628896;87;22066;-57
2022/04/18 13:13:27;;;;;;;5.35;4.33;;;;;;;7.33;78.70;100044.66;1614211;87;21268;-56
2022/04/18 13:16:34;;;;;;;5.55;4.10;;;;;;;7.35;79.07;100052.66;1627035;88;21921;-56
2022/04/18 13:19:39;;;;;;;5.30;4.22;;;;;;;7.40;79.03;100052.50;1626953;85;21240;-55
2022/04/18 13:22:46;;;;;;;5.05;3.80;;;;;;;7.46;79.01;100053.23;1644842;87;21741;-56
2022/04/18 13:25:54;;;;;;;4.97;3.55;;;;;;;7.46;78.65;100057.31;1622704;88;21221;-56
2022/04/18 13:29:01;;;;;;;7.15;4.00;;;;;;;7.34;78.35;100050.43;1623281;88;21264;-57
2022/04/18 13:32:08;;;;;;;5.50;4.30;;;;;;;7.21;78.64;100048.69;1623472;88;21821;-55
2022/04/18 13:35:17;;;;;;;7.28;4.85;;;;;;;7.20;79.09;100045.61;1623150;88;21284;-55
2022/04/18 13:38:22;;;;;;;6.28;4.45;;;;;;;7.24;79.48;100043.42;1624122;88;21252;-56
2022/04/18 13:41:29;;;;;;;5.28;4.53;;;;;;;7.28;79.68;100042.92;1623640;88;21801;-55
2022/04/18 13:44:36;;;;;;;6.08;4.75;;;;;;;7.31;79.84;100043.95;1643646;87;21653;-56
2022/04/18 13:47:43;;;;;;;11.80;5.30;;;;;;;7.26;79.96;100046.31;1639514;87;21261;-56
2022/04/18 13:50:52;;;;;;;6.95;5.60;;;;;;;7.24;80.06;100041.56;1643706;85;21229;-55
2022/04/18 13:53:58;;;;;;;6.83;4.70;;;;;;;7.23;80.38;100034.92;1637515;86;21857;-52
2022/04/18 13:57:04;;;;;;;7.90;5.37;;;;;;;7.26;80.79;100035.42;1638270;87;21241;-52
2022/04/18 14:00:12;;;;;;;5.05;3.62;;;;;;;7.30;80.83;100030.02;1619374;88;21805;-52
2022/04/18 14:03:18;;;;;;;5.05;3.87;;;;;;;7.21;80.52;100029.64;1650927;86;21331;-53
2022/04/18 14:06:30;;;;;;;4.25;3.30;;;;;;;7.10;80.71;100036.70;1650391;86;21292;-57
2022/04/18 14:09:38;;;;;;;4.67;3.77;;;;;;;7.02;81.03;100027.66;1649974;86;21240;-57
2022/04/18 14:12:45;;;;;;;5.37;3.85;;;;;;;6.92;81.27;100037.30;1649418;86;22029;-57
2022/04/18 14:22:42;;;;;;;4.30;3.60;;;;;;;6.80;82.40;100023.60;1649782;87;21349;-57
2022/04/18 14:25:48;;;;;;;5.37;4.22;;;;;;;6.86;82.89;100025.70;1649698;87;21240;-57
2022/04/18 14:28:58;;;;;;;4.55;3.25;;;;;;;6.92;83.01;100030.50;1650432;87;21275;-58
2022/04/18 14:32:05;;;;;;;3.98;3.30;;;;;;;6.96;82.85;100011.45;1649408;87;21212;-57
2022/04/18 14:35:15;;;;;;;3.90;3.20;;;;;;;6.93;82.60;100025.39;1651095;87;21220;-58
2022/04/18 14:38:21;;;;;;;5.20;4.10;;;;;;;6.84;82.52;100011.41;1651097;86;21734;-58
2022/04/18 14:41:30;;;;;;;6.30;4.28;;;;;;;6.84;82.68;100009.17;1651342;87;21240;-58
2022/04/18 14:44:38;;;;;;;5.80;4.12;;;;;;;6.82;82.73;100017.50;1635838;87;21410;-58
2022/04/18 14:47:46;;;;;;;4.75;4.00;;;;;;;6.83;82.85;100013.79;1645056;87;21236;-57
2022/04/18 14:50:54;;;;;;;5.10;3.72;;;;;;;6.81;82.77;100008.14;1624780;88;21248;-57
2022/04/18 14:54:00;;;;;;;4.42;3.70;;;;;;;6.78;82.86;99997.59;1623778;88;21263;-57
2022/04/18 14:57:07;;;;;;;3.90;3.22;;;;;;;6.74;82.78;100007.93;1624770;88;21249;-57
2022/04/18 15:00:14;;;;;;;5.08;3.62;;;;;;;6.73;82.93;99998.08;1623406;88;21311;-58
2022/04/18 15:03:22;;;;;;;4.83;3.75;;;;;;;6.69;82.99;100005.36;1623829;88;21761;-59
2022/04/18 15:06:28;;;;;;;4.72;3.70;;;;;;;6.65;83.29;99995.30;1624749;88;21248;-57
2022/04/18 15:09:35;;;;;;;4.80;3.98;;;;;;;6.67;83.69;100000.09;1624620;88;21276;-56
2022/04/18 15:12:42;;;;;;;5.08;3.92;;;;;;;6.64;84.14;99994.97;1625161;88;21210;-57
2022/04/18 15:15:50;;;;;;;5.12;3.72;;;;;;;6.62;84.39;99996.13;1625094;88;21236;-57
2022/04/18 15:18:56;;;;;;;3.67;3.10;;;;;;;6.56;84.68;99991.33;1625080;88;21260;-57
2022/04/18 15:22:03;;;;;;;5.10;3.83;;;;;;;6.50;84.99;99999.61;1626606;85;21256;-57
2022/04/18 15:25:09;;;;;;;6.15;4.00;;;;;;;6.46;85.26;99994.66;1621171;88;21769;-58
2022/04/18 15:28:17;;;;;;;4.83;3.98;;;;;;;6.48;85.71;100003.51;1621060;88;21252;-58
2022/04/18 15:34:52;;;;;;;5.22;3.72;;;;;;;6.52;86.29;100000.31;1620751;88;21224;-58
2022/04/18 15:38:02;;;;;;;5.33;3.55;;;;;;;6.51;86.60;99993.67;1624451;88;21223;-57
2022/04/18 15:41:08;;;;;;;5.30;3.75;;;;;;;6.54;86.91;99990.13;1618548;88;21285;-57